sensor_id;sensor_type;location;lat;lon;timestamp;P1;durP1;ratioP1;P2;durP2;ratioP2
50249;SDS011;36133;42.522;27.456;2022-07-06T00:01:30;16.20;;;8.70;;
50249;SDS011;36133;42.522;27.456;2022-07-06T00:03:56;20.02;;;9.07;;
50249;SDS011;36133;42.522;27.456;2022-07-06T00:06:22;14.55;;;8.98;;
50249;SDS011;36133;42.522;27.456;2022-07-06T00:08:48;16.77;;;8.73;;
50249;SDS011;36133;42.522;27.456;2022-07-06T00:11:14;17.60;;;9.50;;
50249;SDS011;36133;42.522;27.456;2022-07-06T00:13:39;24.42;;;12.93;;
50249;SDS011;36133;42.522;27.456;2022-07-06T00:16:05;33.67;;;16.30;;
50249;SDS011;36133;42.522;27.456;2022-07-06T00:18:31;31.38;;;14.38;;
50249;SDS011;36133;42.522;27.456;2022-07-06T00:20:57;33.88;;;13.73;;
50249;SDS011;36133;42.522;27.456;2022-07-06T00:23:22;29.50;;;13.80;;
50249;SDS011;36133;42.522;27.456;2022-07-06T00:25:48;33.15;;;14.93;;
50249;SDS011;36133;42.522;27.456;2022-07-06T00:28:14;30.10;;;12.93;;
50249;SDS011;36133;42.522;27.456;2022-07-06T00:30:39;25.83;;;12.52;;
50249;SDS011;36133;42.522;27.456;2022-07-06T00:33:05;45.72;;;14.80;;
50249;SDS011;36133;42.522;27.456;2022-07-06T00:35:32;39.85;;;19.05;;
50249;SDS011;36133;42.522;27.456;2022-07-06T00:37:57;30.30;;;14.63;;
50249;SDS011;36133;42.522;27.456;2022-07-06T00:40:23;24.10;;;13.10;;
50249;SDS011;36133;42.522;27.456;2022-07-06T00:42:49;18.40;;;9.63;;
50249;SDS011;36133;42.522;27.456;2022-07-06T00:45:15;21.35;;;11.07;;
50249;SDS011;36133;42.522;27.456;2022-07-06T00:47:42;13.35;;;9.13;;
50249;SDS011;36133;42.522;27.456;2022-07-06T00:50:09;11.68;;;8.43;;
50249;SDS011;36133;42.522;27.456;2022-07-06T00:55:14;12.43;;;7.80;;
50249;SDS011;36133;42.522;27.456;2022-07-06T00:57:40;14.48;;;8.25;;
50249;SDS011;36133;42.522;27.456;2022-07-06T01:00:08;13.60;;;8.63;;
50249;SDS011;36133;42.522;27.456;2022-07-06T01:02:35;10.70;;;7.90;;
50249;SDS011;36133;42.522;27.456;2022-07-06T01:05:03;10.35;;;8.02;;
50249;SDS011;36133;42.522;27.456;2022-07-06T01:07:29;11.25;;;8.70;;
50249;SDS011;36133;42.522;27.456;2022-07-06T01:09:56;12.98;;;8.75;;
50249;SDS011;36133;42.522;27.456;2022-07-06T01:12:21;17.02;;;8.98;;
50249;SDS011;36133;42.522;27.456;2022-07-06T01:14:48;13.73;;;8.63;;
50249;SDS011;36133;42.522;27.456;2022-07-06T01:17:15;12.60;;;8.73;;
50249;SDS011;36133;42.522;27.456;2022-07-06T01:19:40;14.52;;;8.63;;
50249;SDS011;36133;42.522;27.456;2022-07-06T01:22:06;10.23;;;8.23;;
50249;SDS011;36133;42.522;27.456;2022-07-06T01:24:34;11.32;;;7.90;;
50249;SDS011;36133;42.522;27.456;2022-07-06T01:27:01;15.15;;;8.65;;
50249;SDS011;36133;42.522;27.456;2022-07-06T01:29:27;14.32;;;8.57;;
50249;SDS011;36133;42.522;27.456;2022-07-06T01:31:53;16.52;;;8.95;;
50249;SDS011;36133;42.522;27.456;2022-07-06T01:34:18;13.68;;;8.57;;
50249;SDS011;36133;42.522;27.456;2022-07-06T01:36:44;11.20;;;8.02;;
50249;SDS011;36133;42.522;27.456;2022-07-06T01:39:11;12.18;;;8.45;;
50249;SDS011;36133;42.522;27.456;2022-07-06T01:41:37;14.43;;;7.93;;
50249;SDS011;36133;42.522;27.456;2022-07-06T01:44:03;10.50;;;7.78;;
50249;SDS011;36133;42.522;27.456;2022-07-06T01:46:29;18.65;;;8.57;;
50249;SDS011;36133;42.522;27.456;2022-07-06T01:48:55;13.80;;;8.40;;
50249;SDS011;36133;42.522;27.456;2022-07-06T01:51:21;14.07;;;7.85;;
50249;SDS011;36133;42.522;27.456;2022-07-06T01:53:48;11.45;;;7.72;;
50249;SDS011;36133;42.522;27.456;2022-07-06T01:56:13;12.48;;;7.93;;
50249;SDS011;36133;42.522;27.456;2022-07-06T01:58:39;12.45;;;7.80;;
50249;SDS011;36133;42.522;27.456;2022-07-06T02:01:09;17.23;;;7.63;;
50249;SDS011;36133;42.522;27.456;2022-07-06T02:03:36;13.80;;;7.75;;
50249;SDS011;36133;42.522;27.456;2022-07-06T02:06:02;11.35;;;7.90;;
50249;SDS011;36133;42.522;27.456;2022-07-06T02:08:28;12.13;;;7.80;;
50249;SDS011;36133;42.522;27.456;2022-07-06T02:10:54;13.55;;;7.70;;
50249;SDS011;36133;42.522;27.456;2022-07-06T02:13:19;15.43;;;8.73;;
50249;SDS011;36133;42.522;27.456;2022-07-06T02:15:45;15.18;;;8.57;;
50249;SDS011;36133;42.522;27.456;2022-07-06T02:18:10;14.13;;;8.75;;
50249;SDS011;36133;42.522;27.456;2022-07-06T02:20:36;18.42;;;9.40;;
50249;SDS011;36133;42.522;27.456;2022-07-06T02:23:02;17.20;;;9.57;;
50249;SDS011;36133;42.522;27.456;2022-07-06T02:25:28;17.48;;;9.30;;
50249;SDS011;36133;42.522;27.456;2022-07-06T02:27:53;15.52;;;8.77;;
50249;SDS011;36133;42.522;27.456;2022-07-06T02:30:19;11.63;;;8.80;;
50249;SDS011;36133;42.522;27.456;2022-07-06T02:32:44;21.65;;;8.38;;
50249;SDS011;36133;42.522;27.456;2022-07-06T02:35:10;14.60;;;8.55;;
50249;SDS011;36133;42.522;27.456;2022-07-06T02:37:36;15.57;;;9.75;;
50249;SDS011;36133;42.522;27.456;2022-07-06T02:40:03;15.20;;;11.23;;
50249;SDS011;36133;42.522;27.456;2022-07-06T02:42:29;20.45;;;11.98;;
50249;SDS011;36133;42.522;27.456;2022-07-06T02:44:55;34.08;;;20.52;;
50249;SDS011;36133;42.522;27.456;2022-07-06T02:47:21;33.03;;;19.85;;
50249;SDS011;36133;42.522;27.456;2022-07-06T02:49:46;33.60;;;18.33;;
50249;SDS011;36133;42.522;27.456;2022-07-06T02:52:12;28.20;;;15.82;;
50249;SDS011;36133;42.522;27.456;2022-07-06T02:54:37;21.92;;;14.77;;
50249;SDS011;36133;42.522;27.456;2022-07-06T02:57:03;24.92;;;13.45;;
50249;SDS011;36133;42.522;27.456;2022-07-06T02:59:28;20.45;;;13.07;;
50249;SDS011;36133;42.522;27.456;2022-07-06T03:01:54;21.27;;;13.20;;
50249;SDS011;36133;42.522;27.456;2022-07-06T03:04:19;22.92;;;12.82;;
50249;SDS011;36133;42.522;27.456;2022-07-06T03:06:45;15.52;;;11.35;;
50249;SDS011;36133;42.522;27.456;2022-07-06T03:09:11;17.45;;;11.80;;
50249;SDS011;36133;42.522;27.456;2022-07-06T03:11:36;18.30;;;12.57;;
50249;SDS011;36133;42.522;27.456;2022-07-06T03:14:05;20.58;;;12.63;;
50249;SDS011;36133;42.522;27.456;2022-07-06T03:16:31;27.17;;;15.02;;
50249;SDS011;36133;42.522;27.456;2022-07-06T03:18:57;25.55;;;14.98;;
50249;SDS011;36133;42.522;27.456;2022-07-06T03:21:23;27.77;;;16.02;;
50249;SDS011;36133;42.522;27.456;2022-07-06T03:23:52;26.30;;;16.23;;
50249;SDS011;36133;42.522;27.456;2022-07-06T03:26:17;23.17;;;13.15;;
50249;SDS011;36133;42.522;27.456;2022-07-06T03:28:43;16.38;;;12.73;;
50249;SDS011;36133;42.522;27.456;2022-07-06T03:31:09;18.58;;;14.07;;
50249;SDS011;36133;42.522;27.456;2022-07-06T03:33:34;19.42;;;12.23;;
50249;SDS011;36133;42.522;27.456;2022-07-06T03:36:00;14.82;;;11.52;;
50249;SDS011;36133;42.522;27.456;2022-07-06T03:38:25;14.77;;;10.23;;
50249;SDS011;36133;42.522;27.456;2022-07-06T03:40:51;19.70;;;10.60;;
50249;SDS011;36133;42.522;27.456;2022-07-06T03:43:17;12.68;;;10.05;;
50249;SDS011;36133;42.522;27.456;2022-07-06T03:45:42;12.55;;;9.65;;
50249;SDS011;36133;42.522;27.456;2022-07-06T03:48:08;13.65;;;9.68;;
50249;SDS011;36133;42.522;27.456;2022-07-06T03:50:34;12.57;;;9.48;;
50249;SDS011;36133;42.522;27.456;2022-07-06T03:53:00;17.10;;;9.88;;
50249;SDS011;36133;42.522;27.456;2022-07-06T03:55:26;15.57;;;10.15;;
50249;SDS011;36133;42.522;27.456;2022-07-06T03:57:51;17.30;;;10.88;;
50249;SDS011;36133;42.522;27.456;2022-07-06T04:00:17;23.15;;;11.80;;
50249;SDS011;36133;42.522;27.456;2022-07-06T04:02:42;25.65;;;16.30;;
50249;SDS011;36133;42.522;27.456;2022-07-06T04:05:08;31.30;;;23.65;;
50249;SDS011;36133;42.522;27.456;2022-07-06T04:07:34;36.92;;;27.38;;
50249;SDS011;36133;42.522;27.456;2022-07-06T04:10:00;55.10;;;43.60;;
50249;SDS011;36133;42.522;27.456;2022-07-06T04:12:25;49.47;;;36.00;;
50249;SDS011;36133;42.522;27.456;2022-07-06T04:14:51;50.50;;;33.85;;
50249;SDS011;36133;42.522;27.456;2022-07-06T04:17:17;43.17;;;30.98;;
50249;SDS011;36133;42.522;27.456;2022-07-06T04:20:01;38.35;;;27.65;;
50249;SDS011;36133;42.522;27.456;2022-07-06T04:22:27;38.22;;;17.55;;
50249;SDS011;36133;42.522;27.456;2022-07-06T04:24:52;26.80;;;18.77;;
50249;SDS011;36133;42.522;27.456;2022-07-06T04:27:18;23.88;;;16.23;;
50249;SDS011;36133;42.522;27.456;2022-07-06T04:29:43;23.60;;;15.90;;
50249;SDS011;36133;42.522;27.456;2022-07-06T04:32:09;23.98;;;12.82;;
50249;SDS011;36133;42.522;27.456;2022-07-06T04:34:34;16.05;;;11.75;;
50249;SDS011;36133;42.522;27.456;2022-07-06T04:37:00;18.88;;;13.15;;
50249;SDS011;36133;42.522;27.456;2022-07-06T04:39:26;12.88;;;8.85;;
50249;SDS011;36133;42.522;27.456;2022-07-06T04:41:51;15.63;;;9.15;;
50249;SDS011;36133;42.522;27.456;2022-07-06T04:44:17;14.52;;;9.02;;
50249;SDS011;36133;42.522;27.456;2022-07-06T04:46:42;13.48;;;9.02;;
50249;SDS011;36133;42.522;27.456;2022-07-06T04:49:08;14.75;;;10.27;;
50249;SDS011;36133;42.522;27.456;2022-07-06T04:51:34;16.50;;;9.85;;
50249;SDS011;36133;42.522;27.456;2022-07-06T04:53:59;12.93;;;9.35;;
50249;SDS011;36133;42.522;27.456;2022-07-06T04:56:25;12.80;;;8.85;;
50249;SDS011;36133;42.522;27.456;2022-07-06T04:58:50;13.15;;;8.77;;
50249;SDS011;36133;42.522;27.456;2022-07-06T05:01:16;14.00;;;7.90;;
50249;SDS011;36133;42.522;27.456;2022-07-06T05:03:42;12.15;;;7.50;;
50249;SDS011;36133;42.522;27.456;2022-07-06T05:06:07;11.70;;;7.30;;
50249;SDS011;36133;42.522;27.456;2022-07-06T05:08:33;10.15;;;6.63;;
50249;SDS011;36133;42.522;27.456;2022-07-06T05:10:59;9.50;;;6.05;;
50249;SDS011;36133;42.522;27.456;2022-07-06T05:13:26;9.68;;;6.35;;
50249;SDS011;36133;42.522;27.456;2022-07-06T05:15:51;15.25;;;6.40;;
50249;SDS011;36133;42.522;27.456;2022-07-06T05:18:17;16.38;;;6.97;;
50249;SDS011;36133;42.522;27.456;2022-07-06T05:20:43;12.43;;;6.55;;
50249;SDS011;36133;42.522;27.456;2022-07-06T05:23:09;12.20;;;6.20;;
50249;SDS011;36133;42.522;27.456;2022-07-06T05:25:34;13.80;;;6.68;;
50249;SDS011;36133;42.522;27.456;2022-07-06T05:28:02;8.52;;;6.05;;
50249;SDS011;36133;42.522;27.456;2022-07-06T05:30:28;9.23;;;6.07;;
50249;SDS011;36133;42.522;27.456;2022-07-06T05:32:54;9.65;;;5.88;;
50249;SDS011;36133;42.522;27.456;2022-07-06T05:35:19;7.78;;;5.43;;
50249;SDS011;36133;42.522;27.456;2022-07-06T05:37:45;9.65;;;5.55;;
50249;SDS011;36133;42.522;27.456;2022-07-06T05:40:11;14.70;;;6.63;;
50249;SDS011;36133;42.522;27.456;2022-07-06T05:42:36;12.48;;;6.88;;
50249;SDS011;36133;42.522;27.456;2022-07-06T05:45:02;18.40;;;7.10;;
50249;SDS011;36133;42.522;27.456;2022-07-06T05:47:29;11.35;;;7.15;;
50249;SDS011;36133;42.522;27.456;2022-07-06T05:50:13;11.43;;;7.22;;
50249;SDS011;36133;42.522;27.456;2022-07-06T05:52:40;23.20;;;13.15;;
50249;SDS011;36133;42.522;27.456;2022-07-06T05:55:08;20.63;;;10.68;;
50249;SDS011;36133;42.522;27.456;2022-07-06T05:57:34;18.08;;;8.70;;
50249;SDS011;36133;42.522;27.456;2022-07-06T06:00:00;9.30;;;5.93;;
50249;SDS011;36133;42.522;27.456;2022-07-06T06:02:26;12.60;;;6.70;;
50249;SDS011;36133;42.522;27.456;2022-07-06T06:04:52;13.00;;;6.20;;
50249;SDS011;36133;42.522;27.456;2022-07-06T06:07:18;16.30;;;6.68;;
50249;SDS011;36133;42.522;27.456;2022-07-06T06:09:45;20.30;;;7.65;;
50249;SDS011;36133;42.522;27.456;2022-07-06T06:12:11;11.88;;;6.45;;
50249;SDS011;36133;42.522;27.456;2022-07-06T06:14:36;10.05;;;5.90;;
50249;SDS011;36133;42.522;27.456;2022-07-06T06:17:02;12.43;;;5.45;;
50249;SDS011;36133;42.522;27.456;2022-07-06T06:19:33;10.32;;;5.85;;
50249;SDS011;36133;42.522;27.456;2022-07-06T06:22:02;14.77;;;5.95;;
50249;SDS011;36133;42.522;27.456;2022-07-06T06:24:28;9.52;;;5.63;;
50249;SDS011;36133;42.522;27.456;2022-07-06T06:26:54;16.83;;;5.53;;
50249;SDS011;36133;42.522;27.456;2022-07-06T06:29:19;12.27;;;5.20;;
50249;SDS011;36133;42.522;27.456;2022-07-06T06:31:59;15.75;;;4.75;;
50249;SDS011;36133;42.522;27.456;2022-07-06T06:34:35;8.52;;;5.18;;
50249;SDS011;36133;42.522;27.456;2022-07-06T06:37:03;13.13;;;5.53;;
50249;SDS011;36133;42.522;27.456;2022-07-06T06:39:29;11.57;;;5.00;;
50249;SDS011;36133;42.522;27.456;2022-07-06T06:41:55;12.23;;;5.18;;
50249;SDS011;36133;42.522;27.456;2022-07-06T06:44:20;10.25;;;3.97;;
50249;SDS011;36133;42.522;27.456;2022-07-06T06:46:48;8.13;;;4.20;;
50249;SDS011;36133;42.522;27.456;2022-07-06T06:49:15;13.63;;;4.75;;
50249;SDS011;36133;42.522;27.456;2022-07-06T06:51:41;9.00;;;4.30;;
50249;SDS011;36133;42.522;27.456;2022-07-06T06:54:07;10.55;;;3.92;;
50249;SDS011;36133;42.522;27.456;2022-07-06T06:56:32;9.40;;;4.90;;
50249;SDS011;36133;42.522;27.456;2022-07-06T06:58:58;9.18;;;4.70;;
50249;SDS011;36133;42.522;27.456;2022-07-06T07:01:24;12.50;;;5.35;;
50249;SDS011;36133;42.522;27.456;2022-07-06T07:03:50;10.27;;;5.65;;
50249;SDS011;36133;42.522;27.456;2022-07-06T07:06:17;10.88;;;5.55;;
50249;SDS011;36133;42.522;27.456;2022-07-06T07:08:42;14.63;;;5.13;;
50249;SDS011;36133;42.522;27.456;2022-07-06T07:11:08;9.00;;;4.95;;
50249;SDS011;36133;42.522;27.456;2022-07-06T07:13:34;11.68;;;4.50;;
50249;SDS011;36133;42.522;27.456;2022-07-06T07:15:59;13.88;;;4.95;;
50249;SDS011;36133;42.522;27.456;2022-07-06T07:18:25;8.63;;;4.18;;
50249;SDS011;36133;42.522;27.456;2022-07-06T07:20:53;10.43;;;6.15;;
50249;SDS011;36133;42.522;27.456;2022-07-06T07:23:22;7.40;;;4.13;;
50249;SDS011;36133;42.522;27.456;2022-07-06T07:25:47;9.32;;;4.53;;
50249;SDS011;36133;42.522;27.456;2022-07-06T07:28:13;8.80;;;4.20;;
50249;SDS011;36133;42.522;27.456;2022-07-06T07:30:41;14.90;;;4.28;;
50249;SDS011;36133;42.522;27.456;2022-07-06T07:33:07;13.88;;;4.35;;
50249;SDS011;36133;42.522;27.456;2022-07-06T07:35:36;7.32;;;3.67;;
50249;SDS011;36133;42.522;27.456;2022-07-06T07:38:02;10.30;;;3.95;;
50249;SDS011;36133;42.522;27.456;2022-07-06T07:40:27;10.05;;;4.22;;
50249;SDS011;36133;42.522;27.456;2022-07-06T07:42:53;10.02;;;4.22;;
50249;SDS011;36133;42.522;27.456;2022-07-06T07:45:40;7.88;;;4.25;;
50249;SDS011;36133;42.522;27.456;2022-07-06T07:48:07;13.30;;;5.47;;
50249;SDS011;36133;42.522;27.456;2022-07-06T07:50:36;9.57;;;4.57;;
50249;SDS011;36133;42.522;27.456;2022-07-06T07:53:04;8.13;;;4.22;;
50249;SDS011;36133;42.522;27.456;2022-07-06T07:55:44;17.25;;;5.20;;
50249;SDS011;36133;42.522;27.456;2022-07-06T07:58:10;16.67;;;4.32;;
50249;SDS011;36133;42.522;27.456;2022-07-06T08:00:38;14.65;;;4.68;;
50249;SDS011;36133;42.522;27.456;2022-07-06T08:03:04;14.85;;;4.45;;
50249;SDS011;36133;42.522;27.456;2022-07-06T08:05:30;12.38;;;4.32;;
50249;SDS011;36133;42.522;27.456;2022-07-06T08:07:56;13.45;;;4.45;;
50249;SDS011;36133;42.522;27.456;2022-07-06T08:10:28;17.40;;;4.10;;
50249;SDS011;36133;42.522;27.456;2022-07-06T08:12:56;8.13;;;3.95;;
50249;SDS011;36133;42.522;27.456;2022-07-06T08:15:22;7.90;;;3.92;;
50249;SDS011;36133;42.522;27.456;2022-07-06T08:17:48;11.65;;;4.07;;
50249;SDS011;36133;42.522;27.456;2022-07-06T08:20:13;13.57;;;4.40;;
50249;SDS011;36133;42.522;27.456;2022-07-06T08:22:41;14.55;;;4.75;;
50249;SDS011;36133;42.522;27.456;2022-07-06T08:25:07;16.52;;;4.38;;
50249;SDS011;36133;42.522;27.456;2022-07-06T08:27:33;8.95;;;4.10;;
50249;SDS011;36133;42.522;27.456;2022-07-06T08:29:59;14.80;;;4.15;;
50249;SDS011;36133;42.522;27.456;2022-07-06T08:32:25;13.25;;;4.43;;
50249;SDS011;36133;42.522;27.456;2022-07-06T08:34:51;15.73;;;4.55;;
50249;SDS011;36133;42.522;27.456;2022-07-06T08:37:18;11.48;;;3.90;;
50249;SDS011;36133;42.522;27.456;2022-07-06T08:39:46;13.13;;;3.78;;
50249;SDS011;36133;42.522;27.456;2022-07-06T08:42:12;12.52;;;4.28;;
50249;SDS011;36133;42.522;27.456;2022-07-06T08:44:39;10.23;;;3.38;;
50249;SDS011;36133;42.522;27.456;2022-07-06T08:47:06;7.38;;;3.33;;
50249;SDS011;36133;42.522;27.456;2022-07-06T08:49:32;10.80;;;3.38;;
50249;SDS011;36133;42.522;27.456;2022-07-06T08:52:00;9.18;;;3.63;;
50249;SDS011;36133;42.522;27.456;2022-07-06T08:54:33;7.20;;;3.20;;
50249;SDS011;36133;42.522;27.456;2022-07-06T08:57:09;11.43;;;3.40;;
50249;SDS011;36133;42.522;27.456;2022-07-06T08:59:35;9.10;;;3.20;;
50249;SDS011;36133;42.522;27.456;2022-07-06T09:02:05;10.52;;;3.92;;
50249;SDS011;36133;42.522;27.456;2022-07-06T09:04:32;8.32;;;3.60;;
50249;SDS011;36133;42.522;27.456;2022-07-06T09:07:02;5.80;;;3.42;;
50249;SDS011;36133;42.522;27.456;2022-07-06T09:09:30;9.65;;;3.85;;
50249;SDS011;36133;42.522;27.456;2022-07-06T09:12:02;5.72;;;3.50;;
50249;SDS011;36133;42.522;27.456;2022-07-06T09:14:29;4.53;;;3.15;;
50249;SDS011;36133;42.522;27.456;2022-07-06T09:17:02;8.20;;;3.03;;
50249;SDS011;36133;42.522;27.456;2022-07-06T09:19:33;14.77;;;3.65;;
50249;SDS011;36133;42.522;27.456;2022-07-06T09:22:00;8.25;;;3.28;;
50249;SDS011;36133;42.522;27.456;2022-07-06T09:24:26;6.97;;;2.92;;
50249;SDS011;36133;42.522;27.456;2022-07-06T09:26:54;5.03;;;2.80;;
50249;SDS011;36133;42.522;27.456;2022-07-06T09:29:27;8.50;;;3.30;;
50249;SDS011;36133;42.522;27.456;2022-07-06T09:32:01;5.80;;;3.20;;
50249;SDS011;36133;42.522;27.456;2022-07-06T09:37:10;8.27;;;3.20;;
50249;SDS011;36133;42.522;27.456;2022-07-06T09:39:37;9.55;;;4.57;;
50249;SDS011;36133;42.522;27.456;2022-07-06T09:42:06;7.00;;;3.00;;
50249;SDS011;36133;42.522;27.456;2022-07-06T09:44:39;7.68;;;2.78;;
50249;SDS011;36133;42.522;27.456;2022-07-06T09:47:12;6.70;;;3.20;;
50249;SDS011;36133;42.522;27.456;2022-07-06T09:52:09;5.88;;;3.03;;
50249;SDS011;36133;42.522;27.456;2022-07-06T09:54:39;6.75;;;3.15;;
50249;SDS011;36133;42.522;27.456;2022-07-06T09:57:06;4.00;;;3.03;;
50249;SDS011;36133;42.522;27.456;2022-07-06T09:59:33;8.10;;;3.05;;
50249;SDS011;36133;42.522;27.456;2022-07-06T10:02:01;7.00;;;3.33;;
50249;SDS011;36133;42.522;27.456;2022-07-06T10:04:36;11.48;;;3.15;;
50249;SDS011;36133;42.522;27.456;2022-07-06T10:07:02;4.05;;;2.85;;
50249;SDS011;36133;42.522;27.456;2022-07-06T10:09:31;9.70;;;3.40;;
50249;SDS011;36133;42.522;27.456;2022-07-06T10:11:57;7.30;;;3.10;;
50249;SDS011;36133;42.522;27.456;2022-07-06T10:14:28;8.52;;;2.40;;
50249;SDS011;36133;42.522;27.456;2022-07-06T10:16:56;6.90;;;3.10;;
50249;SDS011;36133;42.522;27.456;2022-07-06T10:19:30;4.93;;;2.88;;
50249;SDS011;36133;42.522;27.456;2022-07-06T10:22:01;5.22;;;2.80;;
50249;SDS011;36133;42.522;27.456;2022-07-06T10:24:28;6.97;;;2.70;;
50249;SDS011;36133;42.522;27.456;2022-07-06T10:26:55;4.55;;;3.17;;
50249;SDS011;36133;42.522;27.456;2022-07-06T10:29:45;6.80;;;2.97;;
50249;SDS011;36133;42.522;27.456;2022-07-06T10:32:13;6.40;;;3.22;;
50249;SDS011;36133;42.522;27.456;2022-07-06T10:34:48;5.97;;;2.65;;
50249;SDS011;36133;42.522;27.456;2022-07-06T10:37:26;6.32;;;2.90;;
50249;SDS011;36133;42.522;27.456;2022-07-06T10:39:52;11.63;;;2.90;;
50249;SDS011;36133;42.522;27.456;2022-07-06T10:42:41;6.03;;;3.00;;
50249;SDS011;36133;42.522;27.456;2022-07-06T10:45:12;8.13;;;3.00;;
50249;SDS011;36133;42.522;27.456;2022-07-06T10:47:47;3.05;;;2.47;;
50249;SDS011;36133;42.522;27.456;2022-07-06T10:50:13;9.68;;;2.95;;
50249;SDS011;36133;42.522;27.456;2022-07-06T10:52:53;6.28;;;2.72;;
50249;SDS011;36133;42.522;27.456;2022-07-06T10:55:34;6.70;;;2.78;;
50249;SDS011;36133;42.522;27.456;2022-07-06T10:58:02;7.43;;;2.80;;
50249;SDS011;36133;42.522;27.456;2022-07-06T11:03:36;8.70;;;2.58;;
50249;SDS011;36133;42.522;27.456;2022-07-06T11:06:18;7.68;;;2.78;;
50249;SDS011;36133;42.522;27.456;2022-07-06T11:08:58;8.45;;;3.38;;
50249;SDS011;36133;42.522;27.456;2022-07-06T11:16:37;9.15;;;2.95;;
50249;SDS011;36133;42.522;27.456;2022-07-06T11:19:32;7.70;;;2.95;;
50249;SDS011;36133;42.522;27.456;2022-07-06T11:22:19;6.88;;;3.10;;
50249;SDS011;36133;42.522;27.456;2022-07-06T11:24:44;5.32;;;2.90;;
50249;SDS011;36133;42.522;27.456;2022-07-06T11:27:28;7.80;;;3.17;;
50249;SDS011;36133;42.522;27.456;2022-07-06T11:29:57;12.57;;;3.42;;
50249;SDS011;36133;42.522;27.456;2022-07-06T11:32:26;4.32;;;2.97;;
50249;SDS011;36133;42.522;27.456;2022-07-06T11:34:52;5.65;;;3.63;;
50249;SDS011;36133;42.522;27.456;2022-07-06T11:37:18;13.35;;;3.20;;
50249;SDS011;36133;42.522;27.456;2022-07-06T11:39:45;5.03;;;2.92;;
50249;SDS011;36133;42.522;27.456;2022-07-06T11:42:19;9.52;;;3.45;;
50249;SDS011;36133;42.522;27.456;2022-07-06T11:44:45;6.70;;;2.95;;
50249;SDS011;36133;42.522;27.456;2022-07-06T11:47:12;17.52;;;3.40;;
50249;SDS011;36133;42.522;27.456;2022-07-06T11:49:41;7.40;;;2.88;;
50249;SDS011;36133;42.522;27.456;2022-07-06T11:52:07;11.07;;;2.78;;
50249;SDS011;36133;42.522;27.456;2022-07-06T11:54:42;5.28;;;2.83;;
50249;SDS011;36133;42.522;27.456;2022-07-06T11:57:13;5.50;;;3.10;;
50249;SDS011;36133;42.522;27.456;2022-07-06T11:59:39;7.57;;;3.28;;
50249;SDS011;36133;42.522;27.456;2022-07-06T12:02:11;15.30;;;3.80;;
50249;SDS011;36133;42.522;27.456;2022-07-06T12:04:40;8.38;;;2.63;;
50249;SDS011;36133;42.522;27.456;2022-07-06T12:07:08;26.02;;;3.25;;
50249;SDS011;36133;42.522;27.456;2022-07-06T12:09:37;9.25;;;2.72;;
50249;SDS011;36133;42.522;27.456;2022-07-06T12:12:09;11.88;;;3.40;;
50249;SDS011;36133;42.522;27.456;2022-07-06T12:14:37;9.35;;;2.92;;
50249;SDS011;36133;42.522;27.456;2022-07-06T12:17:14;9.02;;;2.90;;
50249;SDS011;36133;42.522;27.456;2022-07-06T12:19:40;7.03;;;3.05;;
50249;SDS011;36133;42.522;27.456;2022-07-06T12:22:07;4.07;;;2.53;;
50249;SDS011;36133;42.522;27.456;2022-07-06T12:24:34;7.88;;;2.50;;
50249;SDS011;36133;42.522;27.456;2022-07-06T12:27:19;12.82;;;3.00;;
50249;SDS011;36133;42.522;27.456;2022-07-06T12:29:45;7.30;;;2.95;;
50249;SDS011;36133;42.522;27.456;2022-07-06T12:32:16;7.13;;;2.88;;
50249;SDS011;36133;42.522;27.456;2022-07-06T12:35:04;6.05;;;2.95;;
50249;SDS011;36133;42.522;27.456;2022-07-06T12:37:34;11.13;;;3.00;;
50249;SDS011;36133;42.522;27.456;2022-07-06T12:40:00;6.05;;;2.90;;
50249;SDS011;36133;42.522;27.456;2022-07-06T12:42:26;6.88;;;3.05;;
50249;SDS011;36133;42.522;27.456;2022-07-06T12:44:53;11.85;;;3.30;;
50249;SDS011;36133;42.522;27.456;2022-07-06T12:47:23;8.25;;;2.80;;
50249;SDS011;36133;42.522;27.456;2022-07-06T12:50:09;6.03;;;2.65;;
50249;SDS011;36133;42.522;27.456;2022-07-06T12:52:36;9.65;;;2.90;;
50249;SDS011;36133;42.522;27.456;2022-07-06T12:55:10;7.97;;;3.10;;
50249;SDS011;36133;42.522;27.456;2022-07-06T12:57:49;12.82;;;2.67;;
50249;SDS011;36133;42.522;27.456;2022-07-06T13:00:19;8.25;;;3.15;;
50249;SDS011;36133;42.522;27.456;2022-07-06T13:02:57;8.75;;;2.90;;
50249;SDS011;36133;42.522;27.456;2022-07-06T13:05:24;4.95;;;2.90;;
50249;SDS011;36133;42.522;27.456;2022-07-06T13:07:55;8.75;;;2.92;;
50249;SDS011;36133;42.522;27.456;2022-07-06T13:10:25;8.25;;;2.58;;
50249;SDS011;36133;42.522;27.456;2022-07-06T13:12:51;4.63;;;2.90;;
50249;SDS011;36133;42.522;27.456;2022-07-06T13:15:17;9.75;;;3.10;;
50249;SDS011;36133;42.522;27.456;2022-07-06T13:17:43;4.53;;;2.92;;
50249;SDS011;36133;42.522;27.456;2022-07-06T13:20:12;9.07;;;4.38;;
50249;SDS011;36133;42.522;27.456;2022-07-06T13:22:38;11.98;;;3.03;;
50249;SDS011;36133;42.522;27.456;2022-07-06T13:25:05;9.35;;;2.75;;
50249;SDS011;36133;42.522;27.456;2022-07-06T13:27:34;7.80;;;3.03;;
50249;SDS011;36133;42.522;27.456;2022-07-06T13:30:00;6.45;;;2.88;;
50249;SDS011;36133;42.522;27.456;2022-07-06T13:32:26;4.30;;;2.90;;
50249;SDS011;36133;42.522;27.456;2022-07-06T13:34:52;7.32;;;3.05;;
50249;SDS011;36133;42.522;27.456;2022-07-06T13:37:20;5.97;;;3.50;;
50249;SDS011;36133;42.522;27.456;2022-07-06T13:39:46;8.52;;;3.30;;
50249;SDS011;36133;42.522;27.456;2022-07-06T13:42:15;7.05;;;2.90;;
50249;SDS011;36133;42.522;27.456;2022-07-06T13:44:40;6.63;;;3.00;;
50249;SDS011;36133;42.522;27.456;2022-07-06T13:47:07;6.60;;;3.75;;
50249;SDS011;36133;42.522;27.456;2022-07-06T13:49:33;9.55;;;3.13;;
50249;SDS011;36133;42.522;27.456;2022-07-06T13:51:59;4.90;;;3.30;;
50249;SDS011;36133;42.522;27.456;2022-07-06T13:54:29;7.80;;;2.97;;
50249;SDS011;36133;42.522;27.456;2022-07-06T13:56:55;8.85;;;2.92;;
50249;SDS011;36133;42.522;27.456;2022-07-06T13:59:30;6.43;;;3.15;;
50249;SDS011;36133;42.522;27.456;2022-07-06T14:01:58;6.07;;;3.05;;
50249;SDS011;36133;42.522;27.456;2022-07-06T14:04:27;8.65;;;3.20;;
50249;SDS011;36133;42.522;27.456;2022-07-06T14:07:02;6.97;;;3.03;;
50249;SDS011;36133;42.522;27.456;2022-07-06T14:09:27;6.18;;;3.30;;
50249;SDS011;36133;42.522;27.456;2022-07-06T14:11:54;4.35;;;2.90;;
50249;SDS011;36133;42.522;27.456;2022-07-06T14:14:23;10.50;;;3.10;;
50249;SDS011;36133;42.522;27.456;2022-07-06T14:16:48;4.70;;;2.95;;
50249;SDS011;36133;42.522;27.456;2022-07-06T14:19:16;7.30;;;2.72;;
50249;SDS011;36133;42.522;27.456;2022-07-06T14:21:41;10.05;;;3.67;;
50249;SDS011;36133;42.522;27.456;2022-07-06T14:24:07;10.45;;;3.30;;
50249;SDS011;36133;42.522;27.456;2022-07-06T14:26:33;5.47;;;3.20;;
50249;SDS011;36133;42.522;27.456;2022-07-06T14:28:59;8.70;;;3.55;;
50249;SDS011;36133;42.522;27.456;2022-07-06T14:31:24;7.95;;;3.20;;
50249;SDS011;36133;42.522;27.456;2022-07-06T14:34:08;23.27;;;3.72;;
50249;SDS011;36133;42.522;27.456;2022-07-06T14:36:35;13.53;;;3.47;;
50249;SDS011;36133;42.522;27.456;2022-07-06T14:39:05;9.90;;;3.35;;
50249;SDS011;36133;42.522;27.456;2022-07-06T14:41:31;4.82;;;3.08;;
50249;SDS011;36133;42.522;27.456;2022-07-06T14:43:56;9.98;;;3.45;;